sensor_id;sensor_type;location;lat;lon;timestamp;temperature;humidity
5617;DHT22;2830;50.656;7.568;2023-11-21T00:01:25;8.00;99.90
5617;DHT22;2830;50.656;7.568;2023-11-21T00:03:52;8.00;99.90
5617;DHT22;2830;50.656;7.568;2023-11-21T00:06:21;8.00;99.90
5617;DHT22;2830;50.656;7.568;2023-11-21T00:08:48;8.00;99.90
5617;DHT22;2830;50.656;7.568;2023-11-21T00:11:15;8.00;99.90
5617;DHT22;2830;50.656;7.568;2023-11-21T00:13:41;8.10;99.90
5617;DHT22;2830;50.656;7.568;2023-11-21T00:16:08;8.10;99.90
5617;DHT22;2830;50.656;7.568;2023-11-21T00:18:35;8.10;99.90
5617;DHT22;2830;50.656;7.568;2023-11-21T00:21:02;8.10;99.90
5617;DHT22;2830;50.656;7.568;2023-11-21T00:23:30;8.00;99.90
5617;DHT22;2830;50.656;7.568;2023-11-21T00:25:56;7.80;99.90
5617;DHT22;2830;50.656;7.568;2023-11-21T00:28:24;7.80;99.90
5617;DHT22;2830;50.656;7.568;2023-11-21T00:30:51;7.80;99.90
5617;DHT22;2830;50.656;7.568;2023-11-21T00:33:18;7.70;99.90
5617;DHT22;2830;50.656;7.568;2023-11-21T00:35:45;7.70;99.90
5617;DHT22;2830;50.656;7.568;2023-11-21T00:38:11;7.60;99.90
5617;DHT22;2830;50.656;7.568;2023-11-21T00:40:38;7.60;99.90
5617;DHT22;2830;50.656;7.568;2023-11-21T00:43:05;7.50;99.90
5617;DHT22;2830;50.656;7.568;2023-11-21T00:45:32;7.60;99.90
5617;DHT22;2830;50.656;7.568;2023-11-21T00:47:59;7.60;99.90
5617;DHT22;2830;50.656;7.568;2023-11-21T00:50:25;7.60;99.90
5617;DHT22;2830;50.656;7.568;2023-11-21T00:52:52;7.60;99.90
5617;DHT22;2830;50.656;7.568;2023-11-21T00:55:19;7.70;99.90
5617;DHT22;2830;50.656;7.568;2023-11-21T00:57:46;7.70;99.90
5617;DHT22;2830;50.656;7.568;2023-11-21T01:00:13;7.60;99.90
5617;DHT22;2830;50.656;7.568;2023-11-21T01:02:44;7.70;99.90
5617;DHT22;2830;50.656;7.568;2023-11-21T01:05:11;7.70;99.90
5617;DHT22;2830;50.656;7.568;2023-11-21T01:07:38;7.60;99.90
5617;DHT22;2830;50.656;7.568;2023-11-21T01:10:05;7.50;99.90
5617;DHT22;2830;50.656;7.568;2023-11-21T01:12:35;7.50;99.90
5617;DHT22;2830;50.656;7.568;2023-11-21T01:15:04;7.50;99.90
5617;DHT22;2830;50.656;7.568;2023-11-21T01:17:34;7.40;99.90
5617;DHT22;2830;50.656;7.568;2023-11-21T01:20:02;7.50;99.90
5617;DHT22;2830;50.656;7.568;2023-11-21T01:22:32;7.50;99.90
5617;DHT22;2830;50.656;7.568;2023-11-21T01:24:59;7.50;99.90
5617;DHT22;2830;50.656;7.568;2023-11-21T01:27:26;7.40;99.90
5617;DHT22;2830;50.656;7.568;2023-11-21T01:29:53;7.40;99.90
5617;DHT22;2830;50.656;7.568;2023-11-21T01:32:20;7.40;99.90
5617;DHT22;2830;50.656;7.568;2023-11-21T01:34:50;7.40;99.90
5617;DHT22;2830;50.656;7.568;2023-11-21T01:37:17;7.30;99.90
5617;DHT22;2830;50.656;7.568;2023-11-21T01:39:45;7.30;99.90
5617;DHT22;2830;50.656;7.568;2023-11-21T01:42:13;7.30;99.90
5617;DHT22;2830;50.656;7.568;2023-11-21T01:44:40;7.30;99.90
5617;DHT22;2830;50.656;7.568;2023-11-21T01:47:08;7.30;99.90
5617;DHT22;2830;50.656;7.568;2023-11-21T01:49:36;7.30;99.90
5617;DHT22;2830;50.656;7.568;2023-11-21T01:52:03;7.30;99.90
5617;DHT22;2830;50.656;7.568;2023-11-21T01:54:31;7.30;99.90
5617;DHT22;2830;50.656;7.568;2023-11-21T01:56:59;7.30;99.90
5617;DHT22;2830;50.656;7.568;2023-11-21T01:59:34;7.30;99.90
5617;DHT22;2830;50.656;7.568;2023-11-21T02:02:01;7.30;99.90
5617;DHT22;2830;50.656;7.568;2023-11-21T02:04:28;7.40;99.90
5617;DHT22;2830;50.656;7.568;2023-11-21T02:06:55;7.40;99.90
5617;DHT22;2830;50.656;7.568;2023-11-21T02:09:28;7.40;99.90
5617;DHT22;2830;50.656;7.568;2023-11-21T02:12:04;7.50;99.90
5617;DHT22;2830;50.656;7.568;2023-11-21T02:14:31;7.50;99.90
5617;DHT22;2830;50.656;7.568;2023-11-21T02:16:58;7.50;99.90
5617;DHT22;2830;50.656;7.568;2023-11-21T02:19:25;7.40;99.90
5617;DHT22;2830;50.656;7.568;2023-11-21T02:21:53;7.50;99.90
5617;DHT22;2830;50.656;7.568;2023-11-21T02:24:22;7.50;99.90
5617;DHT22;2830;50.656;7.568;2023-11-21T02:26:50;7.60;99.90
5617;DHT22;2830;50.656;7.568;2023-11-21T02:29:20;7.60;99.90
5617;DHT22;2830;50.656;7.568;2023-11-21T02:31:55;7.50;99.90
5617;DHT22;2830;50.656;7.568;2023-11-21T02:34:22;7.60;99.90
5617;DHT22;2830;50.656;7.568;2023-11-21T02:36:50;7.60;99.90
5617;DHT22;2830;50.656;7.568;2023-11-21T02:39:19;7.60;99.90
5617;DHT22;2830;50.656;7.568;2023-11-21T02:41:49;7.60;99.90
5617;DHT22;2830;50.656;7.568;2023-11-21T02:44:16;7.60;99.90
5617;DHT22;2830;50.656;7.568;2023-11-21T02:46:42;7.60;99.90
5617;DHT22;2830;50.656;7.568;2023-11-21T02:49:09;7.60;99.90
5617;DHT22;2830;50.656;7.568;2023-11-21T02:51:39;7.50;99.90
5617;DHT22;2830;50.656;7.568;2023-11-21T02:54:06;7.50;99.90
5617;DHT22;2830;50.656;7.568;2023-11-21T02:56:34;7.50;99.90
5617;DHT22;2830;50.656;7.568;2023-11-21T02:59:01;7.50;99.90
5617;DHT22;2830;50.656;7.568;2023-11-21T03:01:28;7.50;99.90
5617;DHT22;2830;50.656;7.568;2023-11-21T03:03:55;7.50;99.90
5617;DHT22;2830;50.656;7.568;2023-11-21T03:06:22;7.60;99.90
5617;DHT22;2830;50.656;7.568;2023-11-21T03:08:50;7.60;99.90
5617;DHT22;2830;50.656;7.568;2023-11-21T03:11:17;7.60;99.90
5617;DHT22;2830;50.656;7.568;2023-11-21T03:13:44;7.50;99.90
5617;DHT22;2830;50.656;7.568;2023-11-21T03:16:14;7.50;99.90
5617;DHT22;2830;50.656;7.568;2023-11-21T03:18:41;7.50;99.90
5617;DHT22;2830;50.656;7.568;2023-11-21T03:21:08;7.50;99.90
5617;DHT22;2830;50.656;7.568;2023-11-21T03:23:37;7.40;99.90
5617;DHT22;2830;50.656;7.568;2023-11-21T03:26:04;7.50;99.90
5617;DHT22;2830;50.656;7.568;2023-11-21T03:28:31;7.40;99.90
5617;DHT22;2830;50.656;7.568;2023-11-21T03:30:58;7.50;99.90
5617;DHT22;2830;50.656;7.568;2023-11-21T03:33:24;7.50;99.90
5617;DHT22;2830;50.656;7.568;2023-11-21T03:35:51;7.60;99.90
5617;DHT22;2830;50.656;7.568;2023-11-21T03:38:19;7.60;99.90
5617;DHT22;2830;50.656;7.568;2023-11-21T03:40:46;7.60;99.90
5617;DHT22;2830;50.656;7.568;2023-11-21T03:43:14;7.70;99.90
5617;DHT22;2830;50.656;7.568;2023-11-21T03:45:41;7.60;99.90
5617;DHT22;2830;50.656;7.568;2023-11-21T03:48:08;7.70;99.90
5617;DHT22;2830;50.656;7.568;2023-11-21T03:50:35;7.80;99.90
5617;DHT22;2830;50.656;7.568;2023-11-21T03:53:02;7.80;99.90
5617;DHT22;2830;50.656;7.568;2023-11-21T03:55:28;7.70;99.90
5617;DHT22;2830;50.656;7.568;2023-11-21T03:57:58;7.70;99.90
5617;DHT22;2830;50.656;7.568;2023-11-21T04:00:25;7.70;99.90
5617;DHT22;2830;50.656;7.568;2023-11-21T04:02:55;7.70;99.90
5617;DHT22;2830;50.656;7.568;2023-11-21T04:05:22;7.80;99.90
5617;DHT22;2830;50.656;7.568;2023-11-21T04:07:51;7.70;99.90
5617;DHT22;2830;50.656;7.568;2023-11-21T04:10:19;7.70;99.90
5617;DHT22;2830;50.656;7.568;2023-11-21T04:12:46;7.60;99.90
5617;DHT22;2830;50.656;7.568;2023-11-21T04:15:13;7.60;99.90
5617;DHT22;2830;50.656;7.568;2023-11-21T04:17:41;7.60;99.90
5617;DHT22;2830;50.656;7.568;2023-11-21T04:20:09;7.60;99.90
5617;DHT22;2830;50.656;7.568;2023-11-21T04:22:37;7.60;99.90
5617;DHT22;2830;50.656;7.568;2023-11-21T04:25:12;7.50;99.90
5617;DHT22;2830;50.656;7.568;2023-11-21T04:27:40;7.50;99.90
5617;DHT22;2830;50.656;7.568;2023-11-21T04:30:07;7.50;99.90
5617;DHT22;2830;50.656;7.568;2023-11-21T04:32:34;7.60;99.90
5617;DHT22;2830;50.656;7.568;2023-11-21T04:35:01;7.60;99.90
5617;DHT22;2830;50.656;7.568;2023-11-21T04:37:29;7.70;99.90
5617;DHT22;2830;50.656;7.568;2023-11-21T04:39:56;7.80;99.90
5617;DHT22;2830;50.656;7.568;2023-11-21T04:42:22;7.80;99.90
5617;DHT22;2830;50.656;7.568;2023-11-21T04:44:49;7.80;99.90
5617;DHT22;2830;50.656;7.568;2023-11-21T04:47:16;7.70;99.90
5617;DHT22;2830;50.656;7.568;2023-11-21T04:49:43;7.60;99.90
5617;DHT22;2830;50.656;7.568;2023-11-21T04:52:10;7.60;99.90
5617;DHT22;2830;50.656;7.568;2023-11-21T04:54:37;7.60;99.90
5617;DHT22;2830;50.656;7.568;2023-11-21T04:57:04;7.60;99.90
5617;DHT22;2830;50.656;7.568;2023-11-21T04:59:31;7.60;99.90
5617;DHT22;2830;50.656;7.568;2023-11-21T05:01:58;7.50;99.90
5617;DHT22;2830;50.656;7.568;2023-11-21T05:04:26;7.50;99.90
5617;DHT22;2830;50.656;7.568;2023-11-21T05:06:53;7.50;99.90
5617;DHT22;2830;50.656;7.568;2023-11-21T05:09:20;7.60;99.90
5617;DHT22;2830;50.656;7.568;2023-11-21T05:11:48;7.50;99.90
5617;DHT22;2830;50.656;7.568;2023-11-21T05:14:15;7.70;99.90
5617;DHT22;2830;50.656;7.568;2023-11-21T05:16:42;7.50;99.90
5617;DHT22;2830;50.656;7.568;2023-11-21T05:19:09;7.40;99.90
5617;DHT22;2830;50.656;7.568;2023-11-21T05:21:35;7.50;99.90
5617;DHT22;2830;50.656;7.568;2023-11-21T05:24:02;7.50;99.90
5617;DHT22;2830;50.656;7.568;2023-11-21T05:26:29;7.50;99.90
5617;DHT22;2830;50.656;7.568;2023-11-21T05:28:56;7.50;99.90
5617;DHT22;2830;50.656;7.568;2023-11-21T05:31:23;7.50;99.90
5617;DHT22;2830;50.656;7.568;2023-11-21T05:33:50;7.50;99.90
5617;DHT22;2830;50.656;7.568;2023-11-21T05:36:16;7.50;99.90
5617;DHT22;2830;50.656;7.568;2023-11-21T05:38:43;7.50;99.90
5617;DHT22;2830;50.656;7.568;2023-11-21T05:41:10;7.50;99.90
5617;DHT22;2830;50.656;7.568;2023-11-21T05:43:41;7.50;99.90
5617;DHT22;2830;50.656;7.568;2023-11-21T05:46:07;7.50;99.90
5617;DHT22;2830;50.656;7.568;2023-11-21T05:48:35;7.50;99.90
5617;DHT22;2830;50.656;7.568;2023-11-21T05:51:07;7.50;99.90
5617;DHT22;2830;50.656;7.568;2023-11-21T05:53:34;7.50;99.90
5617;DHT22;2830;50.656;7.568;2023-11-21T05:56:02;7.50;99.90
5617;DHT22;2830;50.656;7.568;2023-11-21T05:58:30;7.40;99.90
5617;DHT22;2830;50.656;7.568;2023-11-21T06:00:57;7.40;99.90
5617;DHT22;2830;50.656;7.568;2023-11-21T06:03:24;7.40;99.90
5617;DHT22;2830;50.656;7.568;2023-11-21T06:05:51;7.30;99.90
5617;DHT22;2830;50.656;7.568;2023-11-21T06:08:18;7.60;99.90
5617;DHT22;2830;50.656;7.568;2023-11-21T06:10:45;7.40;99.90
5617;DHT22;2830;50.656;7.568;2023-11-21T06:13:15;7.40;99.90
5617;DHT22;2830;50.656;7.568;2023-11-21T06:15:42;7.40;99.90
5617;DHT22;2830;50.656;7.568;2023-11-21T06:18:09;7.40;99.90
5617;DHT22;2830;50.656;7.568;2023-11-21T06:20:41;7.40;99.90
5617;DHT22;2830;50.656;7.568;2023-11-21T06:23:07;7.30;99.90
5617;DHT22;2830;50.656;7.568;2023-11-21T06:25:35;7.30;99.90
5617;DHT22;2830;50.656;7.568;2023-11-21T06:28:03;7.30;99.90
5617;DHT22;2830;50.656;7.568;2023-11-21T06:30:30;7.30;99.90
5617;DHT22;2830;50.656;7.568;2023-11-21T06:32:56;7.30;99.90
5617;DHT22;2830;50.656;7.568;2023-11-21T06:35:23;7.30;99.90
5617;DHT22;2830;50.656;7.568;2023-11-21T06:37:50;7.30;99.90
5617;DHT22;2830;50.656;7.568;2023-11-21T06:40:19;7.30;99.90
5617;DHT22;2830;50.656;7.568;2023-11-21T06:42:47;7.20;99.90
5617;DHT22;2830;50.656;7.568;2023-11-21T06:45:15;7.20;99.90
5617;DHT22;2830;50.656;7.568;2023-11-21T06:47:42;7.20;99.90
5617;DHT22;2830;50.656;7.568;2023-11-21T06:50:09;7.30;99.90
5617;DHT22;2830;50.656;7.568;2023-11-21T06:52:36;7.20;99.90
5617;DHT22;2830;50.656;7.568;2023-11-21T06:55:03;7.20;99.90
5617;DHT22;2830;50.656;7.568;2023-11-21T06:57:30;7.20;99.90
5617;DHT22;2830;50.656;7.568;2023-11-21T06:59:57;7.20;99.90
5617;DHT22;2830;50.656;7.568;2023-11-21T07:02:24;7.30;99.90
5617;DHT22;2830;50.656;7.568;2023-11-21T07:04:51;7.30;99.90
5617;DHT22;2830;50.656;7.568;2023-11-21T07:07:18;7.30;99.90
5617;DHT22;2830;50.656;7.568;2023-11-21T07:09:46;7.30;99.90
5617;DHT22;2830;50.656;7.568;2023-11-21T07:12:14;7.30;99.90
5617;DHT22;2830;50.656;7.568;2023-11-21T07:14:41;7.30;99.90
5617;DHT22;2830;50.656;7.568;2023-11-21T07:17:11;7.30;99.90
5617;DHT22;2830;50.656;7.568;2023-11-21T07:19:39;7.30;99.90
5617;DHT22;2830;50.656;7.568;2023-11-21T07:22:06;7.30;99.90
5617;DHT22;2830;50.656;7.568;2023-11-21T07:24:33;7.40;99.90
5617;DHT22;2830;50.656;7.568;2023-11-21T07:27:00;7.30;99.90
5617;DHT22;2830;50.656;7.568;2023-11-21T07:29:27;7.30;99.90
5617;DHT22;2830;50.656;7.568;2023-11-21T07:31:56;7.30;99.90
5617;DHT22;2830;50.656;7.568;2023-11-21T07:34:23;7.30;99.90
5617;DHT22;2830;50.656;7.568;2023-11-21T07:36:50;7.50;99.90
5617;DHT22;2830;50.656;7.568;2023-11-21T07:39:17;7.60;99.90
5617;DHT22;2830;50.656;7.568;2023-11-21T07:41:43;7.70;99.90
5617;DHT22;2830;50.656;7.568;2023-11-21T07:44:18;7.70;99.90
5617;DHT22;2830;50.656;7.568;2023-11-21T07:46:46;7.70;99.90
5617;DHT22;2830;50.656;7.568;2023-11-21T07:49:13;7.60;99.90
5617;DHT22;2830;50.656;7.568;2023-11-21T07:51:43;7.60;99.90
5617;DHT22;2830;50.656;7.568;2023-11-21T07:54:11;7.50;99.90
5617;DHT22;2830;50.656;7.568;2023-11-21T07:56:38;7.50;99.90
5617;DHT22;2830;50.656;7.568;2023-11-21T07:59:04;7.60;99.90
5617;DHT22;2830;50.656;7.568;2023-11-21T08:01:31;7.70;99.90
5617;DHT22;2830;50.656;7.568;2023-11-21T08:03:58;7.80;99.90
5617;DHT22;2830;50.656;7.568;2023-11-21T08:06:30;7.90;99.90
5617;DHT22;2830;50.656;7.568;2023-11-21T08:08:57;8.00;99.90
5617;DHT22;2830;50.656;7.568;2023-11-21T08:11:24;8.00;99.90
5617;DHT22;2830;50.656;7.568;2023-11-21T08:13:51;8.00;99.90
5617;DHT22;2830;50.656;7.568;2023-11-21T08:16:18;8.00;99.90
5617;DHT22;2830;50.656;7.568;2023-11-21T08:18:44;8.00;99.90
5617;DHT22;2830;50.656;7.568;2023-11-21T08:21:13;8.10;99.90
5617;DHT22;2830;50.656;7.568;2023-11-21T08:23:39;8.10;99.90
5617;DHT22;2830;50.656;7.568;2023-11-21T08:26:06;8.00;99.90
5617;DHT22;2830;50.656;7.568;2023-11-21T08:28:33;8.10;99.90
5617;DHT22;2830;50.656;7.568;2023-11-21T08:31:01;8.10;99.90
5617;DHT22;2830;50.656;7.568;2023-11-21T08:33:28;8.20;99.90
5617;DHT22;2830;50.656;7.568;2023-11-21T08:35:54;8.40;99.90
5617;DHT22;2830;50.656;7.568;2023-11-21T08:38:21;8.40;99.90
5617;DHT22;2830;50.656;7.568;2023-11-21T08:40:48;8.40;99.90
5617;DHT22;2830;50.656;7.568;2023-11-21T08:43:15;8.30;99.90
5617;DHT22;2830;50.656;7.568;2023-11-21T08:45:44;8.40;99.90
5617;DHT22;2830;50.656;7.568;2023-11-21T08:48:10;8.50;99.90
5617;DHT22;2830;50.656;7.568;2023-11-21T08:50:38;8.80;99.90
5617;DHT22;2830;50.656;7.568;2023-11-21T08:53:06;8.70;99.90
5617;DHT22;2830;50.656;7.568;2023-11-21T08:55:32;8.80;99.90
5617;DHT22;2830;50.656;7.568;2023-11-21T08:58:04;8.80;99.90
5617;DHT22;2830;50.656;7.568;2023-11-21T09:00:34;8.80;99.90
5617;DHT22;2830;50.656;7.568;2023-11-21T09:03:01;8.80;99.90
5617;DHT22;2830;50.656;7.568;2023-11-21T09:05:30;8.80;99.90
5617;DHT22;2830;50.656;7.568;2023-11-21T09:07:56;8.80;99.90
5617;DHT22;2830;50.656;7.568;2023-11-21T09:10:23;8.90;99.90
5617;DHT22;2830;50.656;7.568;2023-11-21T09:12:52;9.10;99.90
5617;DHT22;2830;50.656;7.568;2023-11-21T09:15:19;9.20;99.90
5617;DHT22;2830;50.656;7.568;2023-11-21T09:17:47;9.30;99.90
5617;DHT22;2830;50.656;7.568;2023-11-21T09:20:14;9.30;99.90
5617;DHT22;2830;50.656;7.568;2023-11-21T09:22:42;9.30;99.90
5617;DHT22;2830;50.656;7.568;2023-11-21T09:25:11;9.30;99.90
5617;DHT22;2830;50.656;7.568;2023-11-21T09:27:39;9.30;99.90
5617;DHT22;2830;50.656;7.568;2023-11-21T09:30:07;9.30;99.90
5617;DHT22;2830;50.656;7.568;2023-11-21T09:32:40;9.30;99.90
5617;DHT22;2830;50.656;7.568;2023-11-21T09:35:08;9.20;99.90
5617;DHT22;2830;50.656;7.568;2023-11-21T09:37:35;9.20;99.90
5617;DHT22;2830;50.656;7.568;2023-11-21T09:40:06;9.30;99.90
5617;DHT22;2830;50.656;7.568;2023-11-21T09:42:40;9.30;99.90
5617;DHT22;2830;50.656;7.568;2023-11-21T09:45:26;9.30;99.90
5617;DHT22;2830;50.656;7.568;2023-11-21T09:47:54;9.20;99.90
5617;DHT22;2830;50.656;7.568;2023-11-21T09:50:23;9.20;99.90
5617;DHT22;2830;50.656;7.568;2023-11-21T09:53:11;9.20;99.90
5617;DHT22;2830;50.656;7.568;2023-11-21T09:55:46;9.20;99.90
5617;DHT22;2830;50.656;7.568;2023-11-21T09:58:14;9.40;99.90
5617;DHT22;2830;50.656;7.568;2023-11-21T10:00:46;9.40;99.90
5617;DHT22;2830;50.656;7.568;2023-11-21T10:03:13;9.40;99.90
5617;DHT22;2830;50.656;7.568;2023-11-21T10:05:45;9.30;99.90
5617;DHT22;2830;50.656;7.568;2023-11-21T10:08:13;9.30;99.90
5617;DHT22;2830;50.656;7.568;2023-11-21T10:10:45;9.30;99.90
5617;DHT22;2830;50.656;7.568;2023-11-21T10:13:13;9.20;99.90
5617;DHT22;2830;50.656;7.568;2023-11-21T10:15:44;9.20;99.90
5617;DHT22;2830;50.656;7.568;2023-11-21T10:18:15;9.20;99.90
5617;DHT22;2830;50.656;7.568;2023-11-21T10:20:43;9.20;99.90
5617;DHT22;2830;50.656;7.568;2023-11-21T10:23:13;9.20;99.90
5617;DHT22;2830;50.656;7.568;2023-11-21T10:25:42;9.10;99.90
5617;DHT22;2830;50.656;7.568;2023-11-21T10:28:10;9.10;99.90
5617;DHT22;2830;50.656;7.568;2023-11-21T10:30:39;9.10;99.90
5617;DHT22;2830;50.656;7.568;2023-11-21T10:33:07;9.10;99.90
5617;DHT22;2830;50.656;7.568;2023-11-21T10:35:48;9.20;99.90
5617;DHT22;2830;50.656;7.568;2023-11-21T10:38:20;9.10;99.90
5617;DHT22;2830;50.656;7.568;2023-11-21T10:40:51;9.10;99.90
5617;DHT22;2830;50.656;7.568;2023-11-21T10:43:18;9.10;99.90
5617;DHT22;2830;50.656;7.568;2023-11-21T10:45:45;9.10;99.90
5617;DHT22;2830;50.656;7.568;2023-11-21T10:48:14;9.00;99.90
5617;DHT22;2830;50.656;7.568;2023-11-21T10:50:46;9.10;99.90
5617;DHT22;2830;50.656;7.568;2023-11-21T10:53:13;9.10;99.90
5617;DHT22;2830;50.656;7.568;2023-11-21T10:55:41;9.10;99.90
5617;DHT22;2830;50.656;7.568;2023-11-21T10:58:10;9.20;99.90
5617;DHT22;2830;50.656;7.568;2023-11-21T11:00:40;9.20;99.90
5617;DHT22;2830;50.656;7.568;2023-11-21T11:03:07;9.10;99.90
5617;DHT22;2830;50.656;7.568;2023-11-21T11:05:41;9.20;99.90
5617;DHT22;2830;50.656;7.568;2023-11-21T11:08:12;9.30;99.90
5617;DHT22;2830;50.656;7.568;2023-11-21T11:10:39;9.30;99.90
5617;DHT22;2830;50.656;7.568;2023-11-21T11:13:07;9.30;99.90
5617;DHT22;2830;50.656;7.568;2023-11-21T11:15:35;9.30;99.90
5617;DHT22;2830;50.656;7.568;2023-11-21T11:18:03;9.30;99.90
5617;DHT22;2830;50.656;7.568;2023-11-21T11:20:37;9.40;99.90
5617;DHT22;2830;50.656;7.568;2023-11-21T11:26:08;9.50;99.90
5617;DHT22;2830;50.656;7.568;2023-11-21T11:29:03;9.50;99.90
5617;DHT22;2830;50.656;7.568;2023-11-21T11:31:55;9.50;99.90
5617;DHT22;2830;50.656;7.568;2023-11-21T11:34:41;9.50;99.90
5617;DHT22;2830;50.656;7.568;2023-11-21T11:37:10;9.40;99.90
5617;DHT22;2830;50.656;7.568;2023-11-21T11:39:38;9.40;99.90
5617;DHT22;2830;50.656;7.568;2023-11-21T11:42:13;9.50;99.90
5617;DHT22;2830;50.656;7.568;2023-11-21T11:47:22;9.70;99.90
5617;DHT22;2830;50.656;7.568;2023-11-21T11:50:09;9.90;99.90
5617;DHT22;2830;50.656;7.568;2023-11-21T11:52:42;10.10;99.90
5617;DHT22;2830;50.656;7.568;2023-11-21T11:55:14;10.00;99.90
5617;DHT22;2830;50.656;7.568;2023-11-21T11:57:48;10.10;99.90
5617;DHT22;2830;50.656;7.568;2023-11-21T12:00:19;10.10;99.90
5617;DHT22;2830;50.656;7.568;2023-11-21T12:02:59;10.10;99.90
5617;DHT22;2830;50.656;7.568;2023-11-21T12:05:30;10.20;99.90
5617;DHT22;2830;50.656;7.568;2023-11-21T12:08:01;10.30;99.90
5617;DHT22;2830;50.656;7.568;2023-11-21T12:10:34;10.40;99.90
5617;DHT22;2830;50.656;7.568;2023-11-21T12:13:05;10.40;99.90
5617;DHT22;2830;50.656;7.568;2023-11-21T12:15:35;10.30;99.90
5617;DHT22;2830;50.656;7.568;2023-11-21T12:18:03;10.30;99.90
5617;DHT22;2830;50.656;7.568;2023-11-21T12:20:31;10.30;99.90
5617;DHT22;2830;50.656;7.568;2023-11-21T12:22:59;10.30;99.90
5617;DHT22;2830;50.656;7.568;2023-11-21T12:25:29;10.30;99.90
5617;DHT22;2830;50.656;7.568;2023-11-21T12:28:00;10.20;99.90
5617;DHT22;2830;50.656;7.568;2023-11-21T12:30:33;10.20;99.90
5617;DHT22;2830;50.656;7.568;2023-11-21T12:33:03;10.20;99.90
5617;DHT22;2830;50.656;7.568;2023-11-21T12:35:34;10.20;99.90
5617;DHT22;2830;50.656;7.568;2023-11-21T12:38:03;10.20;99.90
5617;DHT22;2830;50.656;7.568;2023-11-21T12:40:30;10.20;99.90
5617;DHT22;2830;50.656;7.568;2023-11-21T12:43:00;10.20;99.90
5617;DHT22;2830;50.656;7.568;2023-11-21T12:45:28;10.20;99.90
5617;DHT22;2830;50.656;7.568;2023-11-21T12:48:00;10.30;99.90
5617;DHT22;2830;50.656;7.568;2023-11-21T12:50:29;10.30;99.90
5617;DHT22;2830;50.656;7.568;2023-11-21T12:53:01;10.20;99.90
5617;DHT22;2830;50.656;7.568;2023-11-21T12:55:33;10.00;99.90
5617;DHT22;2830;50.656;7.568;2023-11-21T12:58:06;9.90;99.90
5617;DHT22;2830;50.656;7.568;2023-11-21T13:00:57;9.80;99.90
5617;DHT22;2830;50.656;7.568;2023-11-21T13:03:25;9.80;99.90
5617;DHT22;2830;50.656;7.568;2023-11-21T13:05:53;9.80;99.90
5617;DHT22;2830;50.656;7.568;2023-11-21T13:08:23;9.80;99.90
5617;DHT22;2830;50.656;7.568;2023-11-21T13:10:56;10.00;99.90
5617;DHT22;2830;50.656;7.568;2023-11-21T13:13:24;10.10;99.90
5617;DHT22;2830;50.656;7.568;2023-11-21T13:15:54;10.10;99.90
5617;DHT22;2830;50.656;7.568;2023-11-21T13:18:24;10.20;99.90
5617;DHT22;2830;50.656;7.568;2023-11-21T13:20:57;10.10;99.90
5617;DHT22;2830;50.656;7.568;2023-11-21T13:23:25;10.10;99.90
5617;DHT22;2830;50.656;7.568;2023-11-21T13:25:53;10.00;99.90
5617;DHT22;2830;50.656;7.568;2023-11-21T13:28:31;10.10;99.90
5617;DHT22;2830;50.656;7.568;2023-11-21T13:31:02;10.10;99.90
5617;DHT22;2830;50.656;7.568;2023-11-21T13:33:36;10.30;99.90
5617;DHT22;2830;50.656;7.568;2023-11-21T13:36:05;10.30;99.90
5617;DHT22;2830;50.656;7.568;2023-11-21T13:38:35;10.20;99.90
5617;DHT22;2830;50.656;7.568;2023-11-21T13:41:04;10.20;99.90
5617;DHT22;2830;50.656;7.568;2023-11-21T13:43:34;10.10;99.90
5617;DHT22;2830;50.656;7.568;2023-11-21T13:46:01;10.10;99.90
5617;DHT22;2830;50.656;7.568;2023-11-21T13:48:34;10.00;99.90
5617;DHT22;2830;50.656;7.568;2023-11-21T13:51:09;10.00;99.90
5617;DHT22;2830;50.656;7.568;2023-11-21T13:53:47;10.00;99.90
5617;DHT22;2830;50.656;7.568;2023-11-21T13:56:17;9.90;99.90
5617;DHT22;2830;50.656;7.568;2023-11-21T13:58:48;9.90;99.90
5617;DHT22;2830;50.656;7.568;2023-11-21T14:01:24;9.80;99.90
5617;DHT22;2830;50.656;7.568;2023-11-21T14:03:58;9.90;99.90
5617;DHT22;2830;50.656;7.568;2023-11-21T14:06:35;9.80;99.90
5617;DHT22;2830;50.656;7.568;2023-11-21T14:09:19;9.70;99.90
5617;DHT22;2830;50.656;7.568;2023-11-21T14:11:55;9.70;99.90
5617;DHT22;2830;50.656;7.568;2023-11-21T14:14:26;9.70;99.90
5617;DHT22;2830;50.656;7.568;2023-11-21T14:16:54;9.60;99.90
5617;DHT22;2830;50.656;7.568;2023-11-21T14:19:22;9.60;99.90
5617;DHT22;2830;50.656;7.568;2023-11-21T14:21:53;9.60;99.90
5617;DHT22;2830;50.656;7.568;2023-11-21T14:24:21;9.50;99.90
5617;DHT22;2830;50.656;7.568;2023-11-21T14:26:50;9.40;99.90
5617;DHT22;2830;50.656;7.568;2023-11-21T14:29:18;9.40;99.90
5617;DHT22;2830;50.656;7.568;2023-11-21T14:31:50;9.40;99.90
5617;DHT22;2830;50.656;7.568;2023-11-21T14:34:18;9.30;99.90
5617;DHT22;2830;50.656;7.568;2023-11-21T14:36:48;9.40;99.90
5617;DHT22;2830;50.656;7.568;2023-11-21T14:39:16;9.30;99.90
5617;DHT22;2830;50.656;7.568;2023-11-21T14:41:50;9.30;99.90
5617;DHT22;2830;50.656;7.568;2023-11-21T14:44:19;9.30;99.90
5617;DHT22;2830;50.656;7.568;2023-11-21T14:46:47;9.30;99.90
5617;DHT22;2830;50.656;7.568;2023-11-21T14:49:17;9.30;99.90
5617;DHT22;2830;50.656;7.568;2023-11-21T14:51:48;9.30;99.90
5617;DHT22;2830;50.656;7.568;2023-11-21T14:54:31;9.20;99.90
5617;DHT22;2830;50.656;7.568;2023-11-21T14:57:13;9.20;99.90
5617;DHT22;2830;50.656;7.568;2023-11-21T14:59:48;9.10;99.90
5617;DHT22;2830;50.656;7.568;2023-11-21T15:02:19;9.10;99.90
5617;DHT22;2830;50.656;7.568;2023-11-21T15:05:10;9.00;99.90
5617;DHT22;2830;50.656;7.568;2023-11-21T15:07:43;9.00;99.90
5617;DHT22;2830;50.656;7.568;2023-11-21T15:10:12;8.90;99.90
5617;DHT22;2830;50.656;7.568;2023-11-21T15:12:41;8.90;99.90
5617;DHT22;2830;50.656;7.568;2023-11-21T15:15:10;8.90;99.90
5617;DHT22;2830;50.656;7.568;2023-11-21T15:17:37;8.90;99.90
5617;DHT22;2830;50.656;7.568;2023-11-21T15:20:06;8.80;99.90
5617;DHT22;2830;50.656;7.568;2023-11-21T15:22:35;8.80;99.90
5617;DHT22;2830;50.656;7.568;2023-11-21T15:25:02;8.80;99.90
5617;DHT22;2830;50.656;7.568;2023-11-21T15:27:36;8.80;99.90
5617;DHT22;2830;50.656;7.568;2023-11-21T15:30:06;8.80;99.90
5617;DHT22;2830;50.656;7.568;2023-11-21T15:32:33;8.80;99.90
5617;DHT22;2830;50.656;7.568;2023-11-21T15:35:00;8.80;99.90
5617;DHT22;2830;50.656;7.568;2023-11-21T15:37:26;8.80;99.90
5617;DHT22;2830;50.656;7.568;2023-11-21T15:39:55;8.80;99.90
5617;DHT22;2830;50.656;7.568;2023-11-21T15:42:22;8.70;99.90
5617;DHT22;2830;50.656;7.568;2023-11-21T15:44:49;8.70;99.90
5617;DHT22;2830;50.656;7.568;2023-11-21T15:47:17;8.70;99.90
5617;DHT22;2830;50.656;7.568;2023-11-21T15:49:45;8.70;99.90
5617;DHT22;2830;50.656;7.568;2023-11-21T15:52:15;8.70;99.90
5617;DHT22;2830;50.656;7.568;2023-11-21T15:54:42;8.70;99.90
5617;DHT22;2830;50.656;7.568;2023-11-21T15:57:12;8.70;99.90
5617;DHT22;2830;50.656;7.568;2023-11-21T15:59:41;8.70;99.90
5617;DHT22;2830;50.656;7.568;2023-11-21T16:02:09;8.80;99.90
5617;DHT22;2830;50.656;7.568;2023-11-21T16:04:39;8.80;99.90
5617;DHT22;2830;50.656;7.568;2023-11-21T16:07:06;8.80;99.90
5617;DHT22;2830;50.656;7.568;2023-11-21T16:09:33;8.70;99.90
5617;DHT22;2830;50.656;7.568;2023-11-21T16:12:02;8.70;99.90
5617;DHT22;2830;50.656;7.568;2023-11-21T16:14:30;8.70;99.90
5617;DHT22;2830;50.656;7.568;2023-11-21T16:17:12;8.80;99.90
5617;DHT22;2830;50.656;7.568;2023-11-21T16:19:40;8.80;99.90
5617;DHT22;2830;50.656;7.568;2023-11-21T16:22:08;8.80;99.90
5617;DHT22;2830;50.656;7.568;2023-11-21T16:24:35;8.80;99.90
5617;DHT22;2830;50.656;7.568;2023-11-21T16:27:03;8.80;99.90
5617;DHT22;2830;50.656;7.568;2023-11-21T16:29:31;8.80;99.90
5617;DHT22;2830;50.656;7.568;2023-11-21T16:31:59;8.80;99.90
5617;DHT22;2830;50.656;7.568;2023-11-21T16:34:27;8.80;99.90